sensor_id;sensor_type;location;lat;lon;timestamp;P1;durP1;ratioP1;P2;durP2;ratioP2
28252;SDS011;15515;45.588;5.276;2022-08-19T08:05:28;8.45;;;7.65;;
28252;SDS011;15515;45.588;5.276;2022-08-19T08:08:13;8.38;;;7.55;;
28252;SDS011;15515;45.588;5.276;2022-08-19T08:10:49;9.65;;;7.97;;
28252;SDS011;15515;45.588;5.276;2022-08-19T08:13:17;11.73;;;8.32;;
28252;SDS011;15515;45.588;5.276;2022-08-19T08:15:44;10.77;;;8.40;;
28252;SDS011;15515;45.588;5.276;2022-08-19T08:18:11;9.57;;;8.65;;
28252;SDS011;15515;45.588;5.276;2022-08-19T08:20:38;9.45;;;8.45;;
28252;SDS011;15515;45.588;5.276;2022-08-19T08:23:05;9.30;;;8.18;;
28252;SDS011;15515;45.588;5.276;2022-08-19T08:25:55;9.02;;;8.10;;
28252;SDS011;15515;45.588;5.276;2022-08-19T08:28:24;10.50;;;8.27;;
28252;SDS011;15515;45.588;5.276;2022-08-19T08:30:53;9.57;;;8.43;;
28252;SDS011;15515;45.588;5.276;2022-08-19T08:33:22;14.30;;;9.30;;
28252;SDS011;15515;45.588;5.276;2022-08-19T08:35:50;11.52;;;8.40;;
28252;SDS011;15515;45.588;5.276;2022-08-19T08:38:19;12.20;;;9.30;;
28252;SDS011;15515;45.588;5.276;2022-08-19T08:40:48;12.18;;;9.27;;
28252;SDS011;15515;45.588;5.276;2022-08-19T08:43:29;9.77;;;8.77;;
28252;SDS011;15515;45.588;5.276;2022-08-19T08:52:02;10.00;;;8.95;;
28252;SDS011;15515;45.588;5.276;2022-08-19T08:54:33;9.57;;;8.65;;
28252;SDS011;15515;45.588;5.276;2022-08-19T08:57:04;10.52;;;9.20;;
28252;SDS011;15515;45.588;5.276;2022-08-19T08:59:39;13.63;;;11.20;;
28252;SDS011;15515;45.588;5.276;2022-08-19T09:02:08;12.55;;;10.50;;
28252;SDS011;15515;45.588;5.276;2022-08-19T09:04:36;12.63;;;10.90;;
28252;SDS011;15515;45.588;5.276;2022-08-19T09:10:10;11.63;;;10.30;;
28252;SDS011;15515;45.588;5.276;2022-08-19T09:13:10;21.48;;;17.05;;
28252;SDS011;15515;45.588;5.276;2022-08-19T09:15:58;15.93;;;12.27;;
28252;SDS011;15515;45.588;5.276;2022-08-19T09:18:40;13.32;;;11.70;;
28252;SDS011;15515;45.588;5.276;2022-08-19T09:21:07;14.77;;;12.52;;
28252;SDS011;15515;45.588;5.276;2022-08-19T09:23:36;14.48;;;12.45;;
28252;SDS011;15515;45.588;5.276;2022-08-19T09:26:07;14.27;;;12.82;;
28252;SDS011;15515;45.588;5.276;2022-08-19T09:28:35;14.10;;;12.23;;
28252;SDS011;15515;45.588;5.276;2022-08-19T09:31:06;17.63;;;13.70;;
28252;SDS011;15515;45.588;5.276;2022-08-19T09:33:33;13.80;;;11.95;;
28252;SDS011;15515;45.588;5.276;2022-08-19T09:36:02;14.13;;;12.77;;
28252;SDS011;15515;45.588;5.276;2022-08-19T09:38:33;14.55;;;13.02;;
28252;SDS011;15515;45.588;5.276;2022-08-19T09:41:10;14.13;;;12.70;;
28252;SDS011;15515;45.588;5.276;2022-08-19T09:43:40;14.60;;;12.63;;
28252;SDS011;15515;45.588;5.276;2022-08-19T09:46:10;18.70;;;13.35;;
28252;SDS011;15515;45.588;5.276;2022-08-19T09:48:40;13.65;;;12.15;;
28252;SDS011;15515;45.588;5.276;2022-08-19T09:51:09;13.18;;;11.68;;
28252;SDS011;15515;45.588;5.276;2022-08-19T09:53:42;13.38;;;12.05;;
28252;SDS011;15515;45.588;5.276;2022-08-19T09:56:12;13.73;;;12.43;;
28252;SDS011;15515;45.588;5.276;2022-08-19T09:58:40;15.98;;;12.73;;
28252;SDS011;15515;45.588;5.276;2022-08-19T10:01:07;13.43;;;12.02;;
28252;SDS011;15515;45.588;5.276;2022-08-19T10:03:35;13.95;;;12.50;;
28252;SDS011;15515;45.588;5.276;2022-08-19T10:06:03;13.90;;;12.38;;
28252;SDS011;15515;45.588;5.276;2022-08-19T10:08:32;14.43;;;12.45;;
28252;SDS011;15515;45.588;5.276;2022-08-19T10:11:01;14.05;;;12.10;;
28252;SDS011;15515;45.588;5.276;2022-08-19T10:13:31;17.13;;;12.55;;
28252;SDS011;15515;45.588;5.276;2022-08-19T10:16:05;13.70;;;12.10;;
28252;SDS011;15515;45.588;5.276;2022-08-19T10:18:38;13.40;;;12.00;;
28252;SDS011;15515;45.588;5.276;2022-08-19T10:21:16;14.32;;;12.75;;
28252;SDS011;15515;45.588;5.276;2022-08-19T10:23:46;14.68;;;12.95;;
28252;SDS011;15515;45.588;5.276;2022-08-19T10:26:17;15.05;;;13.52;;
28252;SDS011;15515;45.588;5.276;2022-08-19T10:28:49;18.38;;;14.73;;
28252;SDS011;15515;45.588;5.276;2022-08-19T10:31:20;15.20;;;13.60;;
28252;SDS011;15515;45.588;5.276;2022-08-19T10:33:52;14.98;;;13.45;;
28252;SDS011;15515;45.588;5.276;2022-08-19T10:36:27;17.67;;;14.73;;
28252;SDS011;15515;45.588;5.276;2022-08-19T10:38:58;18.98;;;15.93;;
28252;SDS011;15515;45.588;5.276;2022-08-19T10:41:29;20.23;;;16.83;;
28252;SDS011;15515;45.588;5.276;2022-08-19T10:44:03;16.92;;;15.02;;
28252;SDS011;15515;45.588;5.276;2022-08-19T10:46:34;16.45;;;14.70;;
28252;SDS011;15515;45.588;5.276;2022-08-19T10:49:04;21.15;;;15.30;;
28252;SDS011;15515;45.588;5.276;2022-08-19T10:51:32;18.00;;;14.50;;
28252;SDS011;15515;45.588;5.276;2022-08-19T10:54:18;16.92;;;14.82;;
28252;SDS011;15515;45.588;5.276;2022-08-19T10:56:45;16.40;;;14.70;;
28252;SDS011;15515;45.588;5.276;2022-08-19T10:59:22;18.45;;;14.50;;
28252;SDS011;15515;45.588;5.276;2022-08-19T11:02:00;19.92;;;14.68;;
28252;SDS011;15515;45.588;5.276;2022-08-19T11:04:28;18.05;;;15.43;;
28252;SDS011;15515;45.588;5.276;2022-08-19T11:06:55;15.65;;;14.05;;
28252;SDS011;15515;45.588;5.276;2022-08-19T11:09:23;17.83;;;14.60;;
28252;SDS011;15515;45.588;5.276;2022-08-19T11:11:58;17.33;;;14.15;;
28252;SDS011;15515;45.588;5.276;2022-08-19T11:14:25;16.05;;;14.23;;
28252;SDS011;15515;45.588;5.276;2022-08-19T11:16:53;15.38;;;13.88;;
28252;SDS011;15515;45.588;5.276;2022-08-19T11:19:22;16.13;;;14.43;;
28252;SDS011;15515;45.588;5.276;2022-08-19T11:21:50;20.20;;;14.88;;
28252;SDS011;15515;45.588;5.276;2022-08-19T11:24:21;18.45;;;13.75;;
28252;SDS011;15515;45.588;5.276;2022-08-19T11:26:50;16.02;;;14.43;;
28252;SDS011;15515;45.588;5.276;2022-08-19T11:29:20;16.63;;;14.82;;
28252;SDS011;15515;45.588;5.276;2022-08-19T11:31:48;15.20;;;13.65;;
28252;SDS011;15515;45.588;5.276;2022-08-19T11:34:18;17.15;;;13.85;;
28252;SDS011;15515;45.588;5.276;2022-08-19T11:36:47;15.95;;;14.20;;
28252;SDS011;15515;45.588;5.276;2022-08-19T11:39:17;16.42;;;14.73;;
28252;SDS011;15515;45.588;5.276;2022-08-19T11:41:46;17.15;;;14.55;;
28252;SDS011;15515;45.588;5.276;2022-08-19T11:44:14;19.40;;;15.88;;
28252;SDS011;15515;45.588;5.276;2022-08-19T11:46:41;19.55;;;17.17;;
28252;SDS011;15515;45.588;5.276;2022-08-19T11:49:13;18.10;;;16.23;;
28252;SDS011;15515;45.588;5.276;2022-08-19T11:51:42;17.27;;;15.48;;
28252;SDS011;15515;45.588;5.276;2022-08-19T11:54:10;19.48;;;16.88;;
28252;SDS011;15515;45.588;5.276;2022-08-19T11:56:39;17.73;;;16.00;;
28252;SDS011;15515;45.588;5.276;2022-08-19T11:59:07;18.40;;;16.15;;
28252;SDS011;15515;45.588;5.276;2022-08-19T12:01:38;20.27;;;16.25;;
28252;SDS011;15515;45.588;5.276;2022-08-19T12:04:07;16.58;;;14.80;;
28252;SDS011;15515;45.588;5.276;2022-08-19T12:06:36;21.48;;;18.20;;
28252;SDS011;15515;45.588;5.276;2022-08-19T12:09:06;23.08;;;20.65;;
28252;SDS011;15515;45.588;5.276;2022-08-19T12:11:35;20.25;;;18.05;;
28252;SDS011;15515;45.588;5.276;2022-08-19T12:14:04;20.15;;;17.90;;
28252;SDS011;15515;45.588;5.276;2022-08-19T12:16:32;26.58;;;23.65;;
28252;SDS011;15515;45.588;5.276;2022-08-19T12:18:59;42.30;;;37.85;;
28252;SDS011;15515;45.588;5.276;2022-08-19T12:21:31;28.85;;;25.25;;
28252;SDS011;15515;45.588;5.276;2022-08-19T12:24:01;20.92;;;16.63;;
28252;SDS011;15515;45.588;5.276;2022-08-19T12:26:29;24.88;;;22.27;;
28252;SDS011;15515;45.588;5.276;2022-08-19T12:28:58;27.55;;;24.13;;
28252;SDS011;15515;45.588;5.276;2022-08-19T12:31:26;29.70;;;26.60;;
28252;SDS011;15515;45.588;5.276;2022-08-19T12:33:54;22.23;;;19.83;;
28252;SDS011;15515;45.588;5.276;2022-08-19T12:36:22;21.00;;;16.50;;
28252;SDS011;15515;45.588;5.276;2022-08-19T12:38:49;20.83;;;18.55;;
28252;SDS011;15515;45.588;5.276;2022-08-19T12:41:17;20.08;;;17.73;;
28252;SDS011;15515;45.588;5.276;2022-08-19T12:43:45;16.83;;;15.02;;
28252;SDS011;15515;45.588;5.276;2022-08-19T12:46:14;16.58;;;14.88;;
28252;SDS011;15515;45.588;5.276;2022-08-19T12:48:41;17.08;;;15.35;;
28252;SDS011;15515;45.588;5.276;2022-08-19T12:51:11;14.05;;;12.73;;
28252;SDS011;15515;45.588;5.276;2022-08-19T12:53:40;16.65;;;13.00;;
28252;SDS011;15515;45.588;5.276;2022-08-19T12:56:09;18.40;;;12.88;;
28252;SDS011;15515;45.588;5.276;2022-08-19T12:58:38;15.68;;;13.30;;
28252;SDS011;15515;45.588;5.276;2022-08-19T13:01:09;15.27;;;13.77;;
28252;SDS011;15515;45.588;5.276;2022-08-19T13:03:38;16.98;;;12.90;;
28252;SDS011;15515;45.588;5.276;2022-08-19T13:06:06;19.20;;;15.73;;
28252;SDS011;15515;45.588;5.276;2022-08-19T13:08:35;14.05;;;12.43;;
28252;SDS011;15515;45.588;5.276;2022-08-19T13:11:09;16.70;;;13.20;;
28252;SDS011;15515;45.588;5.276;2022-08-19T13:13:44;16.50;;;13.60;;
28252;SDS011;15515;45.588;5.276;2022-08-19T13:16:14;14.13;;;12.73;;
28252;SDS011;15515;45.588;5.276;2022-08-19T13:18:43;19.90;;;14.80;;
28252;SDS011;15515;45.588;5.276;2022-08-19T13:21:13;14.82;;;12.10;;
28252;SDS011;15515;45.588;5.276;2022-08-19T13:23:41;13.38;;;12.05;;
28252;SDS011;15515;45.588;5.276;2022-08-19T13:26:09;14.85;;;12.27;;
28252;SDS011;15515;45.588;5.276;2022-08-19T13:28:38;13.00;;;11.50;;
28252;SDS011;15515;45.588;5.276;2022-08-19T13:31:25;13.52;;;12.23;;
28252;SDS011;15515;45.588;5.276;2022-08-19T13:34:13;13.10;;;11.73;;
28252;SDS011;15515;45.588;5.276;2022-08-19T13:36:42;12.55;;;11.27;;
28252;SDS011;15515;45.588;5.276;2022-08-19T13:39:11;12.85;;;11.50;;
28252;SDS011;15515;45.588;5.276;2022-08-19T13:41:42;13.18;;;11.75;;
28252;SDS011;15515;45.588;5.276;2022-08-19T13:44:18;19.85;;;17.58;;
28252;SDS011;15515;45.588;5.276;2022-08-19T13:46:46;13.00;;;11.57;;
28252;SDS011;15515;45.588;5.276;2022-08-19T13:49:14;14.90;;;11.75;;
28252;SDS011;15515;45.588;5.276;2022-08-19T13:51:42;15.23;;;11.23;;
28252;SDS011;15515;45.588;5.276;2022-08-19T13:54:10;13.55;;;11.05;;
28252;SDS011;15515;45.588;5.276;2022-08-19T13:56:42;12.18;;;10.98;;
28252;SDS011;15515;45.588;5.276;2022-08-19T13:59:10;12.23;;;10.80;;
28252;SDS011;15515;45.588;5.276;2022-08-19T14:01:38;13.13;;;10.30;;
28252;SDS011;15515;45.588;5.276;2022-08-19T14:04:07;10.90;;;9.70;;
28252;SDS011;15515;45.588;5.276;2022-08-19T14:06:34;10.68;;;9.57;;
28252;SDS011;15515;45.588;5.276;2022-08-19T14:09:01;11.13;;;10.02;;
28252;SDS011;15515;45.588;5.276;2022-08-19T14:11:29;9.95;;;8.95;;
28252;SDS011;15515;45.588;5.276;2022-08-19T14:13:56;9.82;;;8.77;;
28252;SDS011;15515;45.588;5.276;2022-08-19T14:16:23;9.25;;;8.30;;
28252;SDS011;15515;45.588;5.276;2022-08-19T14:18:50;8.60;;;7.80;;
28252;SDS011;15515;45.588;5.276;2022-08-19T14:21:20;11.55;;;7.75;;
28252;SDS011;15515;45.588;5.276;2022-08-19T14:23:51;8.18;;;7.38;;
28252;SDS011;15515;45.588;5.276;2022-08-19T14:26:18;9.85;;;7.30;;
28252;SDS011;15515;45.588;5.276;2022-08-19T14:28:46;9.85;;;7.50;;
28252;SDS011;15515;45.588;5.276;2022-08-19T14:31:14;7.38;;;6.53;;
28252;SDS011;15515;45.588;5.276;2022-08-19T14:33:46;7.53;;;6.82;;
28252;SDS011;15515;45.588;5.276;2022-08-19T14:36:13;8.07;;;6.95;;
28252;SDS011;15515;45.588;5.276;2022-08-19T14:38:41;7.43;;;6.72;;
28252;SDS011;15515;45.588;5.276;2022-08-19T14:41:13;9.63;;;6.93;;
28252;SDS011;15515;45.588;5.276;2022-08-19T14:43:47;8.55;;;6.90;;
28252;SDS011;15515;45.588;5.276;2022-08-19T14:46:16;7.57;;;6.88;;
28252;SDS011;15515;45.588;5.276;2022-08-19T14:48:49;7.18;;;6.47;;
28252;SDS011;15515;45.588;5.276;2022-08-19T14:51:16;7.10;;;6.40;;
28252;SDS011;15515;45.588;5.276;2022-08-19T14:53:45;6.93;;;6.32;;
28252;SDS011;15515;45.588;5.276;2022-08-19T14:56:16;7.95;;;6.78;;
28252;SDS011;15515;45.588;5.276;2022-08-19T14:58:48;6.90;;;6.00;;
28252;SDS011;15515;45.588;5.276;2022-08-19T15:01:18;6.78;;;6.05;;
28252;SDS011;15515;45.588;5.276;2022-08-19T15:03:47;6.88;;;5.43;;
28252;SDS011;15515;45.588;5.276;2022-08-19T15:06:15;7.55;;;6.13;;
28252;SDS011;15515;45.588;5.276;2022-08-19T15:08:42;6.43;;;5.82;;
28252;SDS011;15515;45.588;5.276;2022-08-19T15:11:17;7.72;;;6.18;;
28252;SDS011;15515;45.588;5.276;2022-08-19T15:13:47;9.70;;;7.15;;
28252;SDS011;15515;45.588;5.276;2022-08-19T15:16:14;6.45;;;5.85;;
28252;SDS011;15515;45.588;5.276;2022-08-19T15:18:42;6.70;;;6.05;;
28252;SDS011;15515;45.588;5.276;2022-08-19T15:21:13;8.73;;;5.63;;
28252;SDS011;15515;45.588;5.276;2022-08-19T15:23:44;7.88;;;5.65;;
28252;SDS011;15515;45.588;5.276;2022-08-19T15:26:14;6.43;;;5.82;;
28252;SDS011;15515;45.588;5.276;2022-08-19T15:28:42;6.35;;;5.20;;
28252;SDS011;15515;45.588;5.276;2022-08-19T15:31:09;6.53;;;5.70;;
28252;SDS011;15515;45.588;5.276;2022-08-19T15:33:38;7.50;;;5.03;;
28252;SDS011;15515;45.588;5.276;2022-08-19T15:36:10;5.40;;;4.90;;
28252;SDS011;15515;45.588;5.276;2022-08-19T15:38:38;5.72;;;5.15;;
28252;SDS011;15515;45.588;5.276;2022-08-19T15:41:18;5.18;;;4.68;;
28252;SDS011;15515;45.588;5.276;2022-08-19T15:43:51;6.05;;;4.93;;
28252;SDS011;15515;45.588;5.276;2022-08-19T15:46:22;5.00;;;4.60;;
28252;SDS011;15515;45.588;5.276;2022-08-19T15:48:51;6.10;;;4.60;;
28252;SDS011;15515;45.588;5.276;2022-08-19T15:51:20;5.90;;;5.32;;
28252;SDS011;15515;45.588;5.276;2022-08-19T15:53:47;5.97;;;5.25;;
28252;SDS011;15515;45.588;5.276;2022-08-19T15:56:15;6.95;;;4.75;;
28252;SDS011;15515;45.588;5.276;2022-08-19T15:58:42;5.53;;;4.97;;
28252;SDS011;15515;45.588;5.276;2022-08-19T16:01:28;5.57;;;4.88;;
28252;SDS011;15515;45.588;5.276;2022-08-19T16:04:14;8.35;;;5.53;;
28252;SDS011;15515;45.588;5.276;2022-08-19T16:07:00;5.35;;;4.85;;
28252;SDS011;15515;45.588;5.276;2022-08-19T16:09:30;7.47;;;5.25;;
28252;SDS011;15515;45.588;5.276;2022-08-19T16:11:58;10.98;;;8.25;;
28252;SDS011;15515;45.588;5.276;2022-08-19T16:14:28;6.55;;;4.97;;
28252;SDS011;15515;45.588;5.276;2022-08-19T16:16:56;9.95;;;7.93;;
28252;SDS011;15515;45.588;5.276;2022-08-19T16:19:24;6.15;;;5.35;;
28252;SDS011;15515;45.588;5.276;2022-08-19T16:21:53;6.70;;;6.10;;
28252;SDS011;15515;45.588;5.276;2022-08-19T16:24:23;6.40;;;5.80;;
28252;SDS011;15515;45.588;5.276;2022-08-19T16:26:52;8.35;;;6.68;;
28252;SDS011;15515;45.588;5.276;2022-08-19T16:29:20;8.43;;;5.18;;
28252;SDS011;15515;45.588;5.276;2022-08-19T16:31:48;6.15;;;5.55;;
28252;SDS011;15515;45.588;5.276;2022-08-19T16:34:15;8.57;;;5.32;;
28252;SDS011;15515;45.588;5.276;2022-08-19T16:36:42;5.88;;;4.88;;
28252;SDS011;15515;45.588;5.276;2022-08-19T16:39:10;5.97;;;5.35;;
28252;SDS011;15515;45.588;5.276;2022-08-19T16:41:39;7.45;;;5.30;;
28252;SDS011;15515;45.588;5.276;2022-08-19T16:44:09;6.05;;;5.40;;
28252;SDS011;15515;45.588;5.276;2022-08-19T16:46:37;7.03;;;5.25;;
28252;SDS011;15515;45.588;5.276;2022-08-19T16:49:07;8.15;;;5.47;;
28252;SDS011;15515;45.588;5.276;2022-08-19T16:51:36;7.05;;;5.13;;
28252;SDS011;15515;45.588;5.276;2022-08-19T16:54:04;5.20;;;4.72;;
28252;SDS011;15515;45.588;5.276;2022-08-19T16:56:31;7.57;;;5.38;;
28252;SDS011;15515;45.588;5.276;2022-08-19T16:58:58;8.02;;;5.72;;
28252;SDS011;15515;45.588;5.276;2022-08-19T17:01:26;7.93;;;5.57;;
28252;SDS011;15515;45.588;5.276;2022-08-19T17:03:54;6.30;;;5.57;;
28252;SDS011;15515;45.588;5.276;2022-08-19T17:06:23;8.13;;;5.45;;
28252;SDS011;15515;45.588;5.276;2022-08-19T17:08:57;8.80;;;5.30;;
28252;SDS011;15515;45.588;5.276;2022-08-19T17:11:26;7.72;;;5.28;;
28252;SDS011;15515;45.588;5.276;2022-08-19T17:13:55;8.52;;;4.60;;
28252;SDS011;15515;45.588;5.276;2022-08-19T17:16:26;5.97;;;4.85;;
28252;SDS011;15515;45.588;5.276;2022-08-19T17:18:55;6.68;;;5.13;;
28252;SDS011;15515;45.588;5.276;2022-08-19T17:21:27;6.93;;;5.78;;
28252;SDS011;15515;45.588;5.276;2022-08-19T17:26:26;7.03;;;5.78;;
28252;SDS011;15515;45.588;5.276;2022-08-19T17:28:54;7.13;;;5.80;;
28252;SDS011;15515;45.588;5.276;2022-08-19T17:31:23;6.28;;;5.70;;
28252;SDS011;15515;45.588;5.276;2022-08-19T17:33:51;6.70;;;5.70;;
28252;SDS011;15515;45.588;5.276;2022-08-19T17:36:19;6.30;;;5.22;;
28252;SDS011;15515;45.588;5.276;2022-08-19T17:38:52;7.03;;;6.00;;
28252;SDS011;15515;45.588;5.276;2022-08-19T17:41:21;9.05;;;6.35;;
28252;SDS011;15515;45.588;5.276;2022-08-19T17:43:49;8.32;;;6.63;;
28252;SDS011;15515;45.588;5.276;2022-08-19T17:46:17;11.00;;;6.65;;
28252;SDS011;15515;45.588;5.276;2022-08-19T17:48:46;9.60;;;6.60;;
28252;SDS011;15515;45.588;5.276;2022-08-19T17:51:21;6.43;;;5.82;;
28252;SDS011;15515;45.588;5.276;2022-08-19T17:53:53;10.40;;;7.15;;
28252;SDS011;15515;45.588;5.276;2022-08-19T17:56:20;22.35;;;16.77;;
28252;SDS011;15515;45.588;5.276;2022-08-19T17:58:49;8.15;;;6.93;;
28252;SDS011;15515;45.588;5.276;2022-08-19T18:01:20;10.90;;;6.88;;
28252;SDS011;15515;45.588;5.276;2022-08-19T18:03:47;8.98;;;6.45;;
28252;SDS011;15515;45.588;5.276;2022-08-19T18:06:14;9.63;;;8.27;;
28252;SDS011;15515;45.588;5.276;2022-08-19T18:08:42;8.45;;;6.35;;
28252;SDS011;15515;45.588;5.276;2022-08-19T18:11:14;9.98;;;6.35;;
28252;SDS011;15515;45.588;5.276;2022-08-19T18:13:42;7.60;;;6.05;;
28252;SDS011;15515;45.588;5.276;2022-08-19T18:16:09;11.50;;;8.90;;
28252;SDS011;15515;45.588;5.276;2022-08-19T18:18:39;8.13;;;6.32;;
28252;SDS011;15515;45.588;5.276;2022-08-19T18:21:08;10.90;;;8.02;;
28252;SDS011;15515;45.588;5.276;2022-08-19T18:23:36;10.73;;;8.35;;
28252;SDS011;15515;45.588;5.276;2022-08-19T18:26:03;9.57;;;7.38;;
28252;SDS011;15515;45.588;5.276;2022-08-19T18:28:31;8.68;;;7.35;;
28252;SDS011;15515;45.588;5.276;2022-08-19T18:30:58;9.73;;;7.40;;
28252;SDS011;15515;45.588;5.276;2022-08-19T18:33:26;11.23;;;8.45;;
28252;SDS011;15515;45.588;5.276;2022-08-19T18:35:53;11.25;;;8.13;;
28252;SDS011;15515;45.588;5.276;2022-08-19T18:38:21;10.10;;;7.15;;
28252;SDS011;15515;45.588;5.276;2022-08-19T18:41:07;7.47;;;6.38;;
28252;SDS011;15515;45.588;5.276;2022-08-19T18:43:53;9.20;;;6.00;;
28252;SDS011;15515;45.588;5.276;2022-08-19T18:46:38;7.55;;;6.25;;
28252;SDS011;15515;45.588;5.276;2022-08-19T18:49:26;9.95;;;7.47;;
28252;SDS011;15515;45.588;5.276;2022-08-19T18:51:55;7.25;;;6.30;;
28252;SDS011;15515;45.588;5.276;2022-08-19T18:54:23;7.20;;;6.10;;
28252;SDS011;15515;45.588;5.276;2022-08-19T18:56:52;11.55;;;7.20;;
28252;SDS011;15515;45.588;5.276;2022-08-19T18:59:22;9.25;;;6.78;;
28252;SDS011;15515;45.588;5.276;2022-08-19T19:01:54;7.25;;;6.18;;
28252;SDS011;15515;45.588;5.276;2022-08-19T19:04:30;7.40;;;6.25;;
28252;SDS011;15515;45.588;5.276;2022-08-19T19:07:03;8.20;;;6.90;;
28252;SDS011;15515;45.588;5.276;2022-08-19T19:09:30;11.60;;;6.90;;
28252;SDS011;15515;45.588;5.276;2022-08-19T19:11:59;9.10;;;6.60;;
28252;SDS011;15515;45.588;5.276;2022-08-19T19:14:31;9.32;;;6.72;;
28252;SDS011;15515;45.588;5.276;2022-08-19T19:17:16;9.52;;;6.25;;
28252;SDS011;15515;45.588;5.276;2022-08-19T19:19:43;8.60;;;6.47;;
28252;SDS011;15515;45.588;5.276;2022-08-19T19:22:11;10.75;;;6.43;;
28252;SDS011;15515;45.588;5.276;2022-08-19T19:24:40;7.65;;;6.65;;
28252;SDS011;15515;45.588;5.276;2022-08-19T19:27:10;7.68;;;6.80;;
28252;SDS011;15515;45.588;5.276;2022-08-19T19:29:39;9.77;;;7.00;;
28252;SDS011;15515;45.588;5.276;2022-08-19T19:32:10;13.82;;;11.52;;
28252;SDS011;15515;45.588;5.276;2022-08-19T19:34:42;8.43;;;7.43;;
28252;SDS011;15515;45.588;5.276;2022-08-19T19:37:10;13.15;;;7.03;;
28252;SDS011;15515;45.588;5.276;2022-08-19T19:39:37;8.07;;;6.90;;
28252;SDS011;15515;45.588;5.276;2022-08-19T19:42:08;17.35;;;14.13;;
28252;SDS011;15515;45.588;5.276;2022-08-19T19:44:40;8.60;;;7.07;;
28252;SDS011;15515;45.588;5.276;2022-08-19T19:47:07;8.10;;;6.85;;
28252;SDS011;15515;45.588;5.276;2022-08-19T19:49:35;8.15;;;6.70;;
28252;SDS011;15515;45.588;5.276;2022-08-19T19:52:09;11.10;;;6.88;;
28252;SDS011;15515;45.588;5.276;2022-08-19T19:54:37;6.80;;;6.10;;
28252;SDS011;15515;45.588;5.276;2022-08-19T19:57:04;8.98;;;6.75;;
28252;SDS011;15515;45.588;5.276;2022-08-19T19:59:31;10.10;;;6.20;;
28252;SDS011;15515;45.588;5.276;2022-08-19T20:01:58;12.93;;;6.75;;
28252;SDS011;15515;45.588;5.276;2022-08-19T20:04:26;10.27;;;6.03;;
28252;SDS011;15515;45.588;5.276;2022-08-19T20:06:54;9.23;;;6.53;;
28252;SDS011;15515;45.588;5.276;2022-08-19T20:09:21;11.63;;;6.72;;
28252;SDS011;15515;45.588;5.276;2022-08-19T20:11:53;9.80;;;7.47;;
28252;SDS011;15515;45.588;5.276;2022-08-19T20:14:25;8.38;;;6.70;;
28252;SDS011;15515;45.588;5.276;2022-08-19T20:16:54;26.48;;;15.43;;
28252;SDS011;15515;45.588;5.276;2022-08-19T20:19:23;11.20;;;7.40;;
28252;SDS011;15515;45.588;5.276;2022-08-19T20:21:53;11.23;;;7.13;;
28252;SDS011;15515;45.588;5.276;2022-08-19T20:24:22;10.65;;;6.90;;
28252;SDS011;15515;45.588;5.276;2022-08-19T20:26:51;10.80;;;7.13;;
28252;SDS011;15515;45.588;5.276;2022-08-19T20:29:19;12.00;;;10.27;;
28252;SDS011;15515;45.588;5.276;2022-08-19T20:31:47;13.75;;;7.32;;
28252;SDS011;15515;45.588;5.276;2022-08-19T20:34:14;7.78;;;7.07;;
28252;SDS011;15515;45.588;5.276;2022-08-19T20:36:43;11.20;;;7.20;;
28252;SDS011;15515;45.588;5.276;2022-08-19T20:39:10;8.60;;;6.95;;
28252;SDS011;15515;45.588;5.276;2022-08-19T20:41:38;13.32;;;8.70;;
28252;SDS011;15515;45.588;5.276;2022-08-19T20:44:05;9.05;;;7.10;;
28252;SDS011;15515;45.588;5.276;2022-08-19T20:46:33;10.65;;;6.93;;
28252;SDS011;15515;45.588;5.276;2022-08-19T20:49:00;9.85;;;7.00;;
28252;SDS011;15515;45.588;5.276;2022-08-19T20:51:28;10.88;;;7.40;;
28252;SDS011;15515;45.588;5.276;2022-08-19T20:53:56;10.18;;;6.95;;
28252;SDS011;15515;45.588;5.276;2022-08-19T20:56:27;10.15;;;7.10;;
